createdAt,value
2023-05-19T00:00:59.716Z,7.5
2023-05-19T00:01:59.442Z,7.5
2023-05-19T00:02:59.279Z,7.5
2023-05-19T00:03:59.586Z,7.4
2023-05-19T00:04:59.362Z,7.5
2023-05-19T00:05:58.292Z,7.5
2023-05-19T00:06:59.198Z,7.6
2023-05-19T00:07:59.174Z,7.6
2023-05-19T00:08:59.204Z,7.5
2023-05-19T00:09:59.237Z,7.5
2023-05-19T00:10:59.341Z,7.6
2023-05-19T00:11:59.196Z,7.7
2023-05-19T00:12:59.767Z,7.7
2023-05-19T00:13:59.236Z,7.7
2023-05-19T00:14:59.190Z,7.8
2023-05-19T00:15:59.222Z,7.7
2023-05-19T00:16:59.190Z,7.8
2023-05-19T00:19:00.170Z,7.8
2023-05-19T00:19:59.177Z,7.8
2023-05-19T00:20:59.180Z,7.8
2023-05-19T00:21:59.208Z,7.8
2023-05-19T00:22:59.192Z,7.8
2023-05-19T00:23:59.181Z,7.9
2023-05-19T00:24:59.181Z,7.9
2023-05-19T00:26:00.123Z,7.9
2023-05-19T00:26:59.163Z,7.9
2023-05-19T00:27:59.195Z,7.9
2023-05-19T00:28:59.250Z,7.9
2023-05-19T00:29:59.410Z,7.9
2023-05-19T00:30:59.380Z,7.9
2023-05-19T00:31:59.237Z,7.9
2023-05-19T00:32:59.261Z,7.9
2023-05-19T00:33:59.191Z,8
2023-05-19T00:34:59.199Z,8
2023-05-19T00:35:58.360Z,7.9
2023-05-19T00:36:59.667Z,7.9
2023-05-19T00:37:59.186Z,8
2023-05-19T00:38:59.277Z,8
2023-05-19T00:39:59.214Z,8
2023-05-19T00:40:59.560Z,8
2023-05-19T00:41:59.761Z,8
2023-05-19T00:42:59.914Z,8
2023-05-19T00:43:59.193Z,8.1
2023-05-19T00:44:59.186Z,8
2023-05-19T00:45:59.509Z,8
2023-05-19T00:46:59.506Z,8.1
2023-05-19T00:47:59.632Z,8.1
2023-05-19T00:48:59.277Z,8.1
2023-05-19T00:49:59.324Z,8.1
2023-05-19T00:50:59.188Z,8.1
2023-05-19T00:51:59.199Z,8
2023-05-19T00:52:59.189Z,8
2023-05-19T00:53:59.219Z,8.1
2023-05-19T00:54:59.163Z,8.1
2023-05-19T00:55:59.776Z,8.1
2023-05-19T00:56:59.296Z,8.1
2023-05-19T00:57:59.180Z,8.1
2023-05-19T00:58:59.757Z,8.1
2023-05-19T00:59:59.649Z,8.1
2023-05-19T01:00:59.299Z,8.2
2023-05-19T01:01:59.215Z,8.2
2023-05-19T01:02:59.967Z,8.2
2023-05-19T01:03:59.631Z,8.3
2023-05-19T01:04:59.194Z,8.2
2023-05-19T01:05:59.100Z,8.2
2023-05-19T01:07:01.513Z,8.2
2023-05-19T01:07:59.190Z,8.2
2023-05-19T01:08:59.724Z,8.2
2023-05-19T01:09:59.190Z,8.2
2023-05-19T01:10:59.355Z,8.3
2023-05-19T01:11:59.189Z,8.2
2023-05-19T01:13:00.143Z,8.3
2023-05-19T01:13:59.180Z,8.3
2023-05-19T01:14:58.249Z,8.3
2023-05-19T01:15:59.318Z,8.3
2023-05-19T01:16:59.224Z,8.3
2023-05-19T01:17:59.417Z,8.4
2023-05-19T01:18:59.673Z,8.4
2023-05-19T01:19:59.191Z,8.3
2023-05-19T01:20:59.785Z,8.4
2023-05-19T01:21:59.190Z,8.4
2023-05-19T01:22:59.249Z,8.4
2023-05-19T01:23:59.792Z,8.4
2023-05-19T01:24:59.674Z,8.4
2023-05-19T01:25:59.270Z,8.4
2023-05-19T01:26:59.185Z,8.4
2023-05-19T01:27:59.401Z,8.4
2023-05-19T01:28:59.320Z,8.4
2023-05-19T01:29:59.190Z,8.5
2023-05-19T01:30:59.241Z,8.4
2023-05-19T01:32:00.041Z,8.4
2023-05-19T01:32:59.242Z,8.4
2023-05-19T01:33:59.190Z,8.5
2023-05-19T01:34:59.216Z,8.5
2023-05-19T01:35:58.611Z,8.5
2023-05-19T01:36:59.194Z,8.5
2023-05-19T01:37:59.229Z,8.4
2023-05-19T01:38:59.185Z,8.4
2023-05-19T01:39:59.964Z,8.5
2023-05-19T01:40:59.261Z,8.5
2023-05-19T01:41:59.546Z,8.5
2023-05-19T01:42:59.464Z,8.5
2023-05-19T01:43:59.181Z,8.5
2023-05-19T01:45:00.177Z,8.5
2023-05-19T01:45:59.520Z,8.5
2023-05-19T01:46:59.181Z,8.4
2023-05-19T01:47:59.312Z,8.4
2023-05-19T01:48:59.808Z,8.5
2023-05-19T01:49:59.194Z,8.5
2023-05-19T01:51:00.041Z,8.4
2023-05-19T01:52:59.741Z,8.5
2023-05-19T01:53:59.245Z,8.5
2023-05-19T01:54:59.199Z,8.5
2023-05-19T01:55:59.715Z,8.5
2023-05-19T01:56:59.167Z,8.5
2023-05-19T01:57:59.208Z,8.6
2023-05-19T01:58:59.169Z,8.6
2023-05-19T01:59:59.199Z,8.5
2023-05-19T02:00:59.225Z,8.5
2023-05-19T02:01:59.558Z,8.6
2023-05-19T02:02:59.249Z,8.6
2023-05-19T02:03:59.233Z,8.6
2023-05-19T02:04:59.629Z,8.6
2023-05-19T02:07:00.113Z,8.6
2023-05-19T02:07:59.894Z,8.6
2023-05-19T02:08:59.209Z,8.6
2023-05-19T02:09:59.270Z,8.5
2023-05-19T02:10:59.759Z,8.6
2023-05-19T02:11:59.282Z,8.6
2023-05-19T02:12:59.714Z,8.6
2023-05-19T02:13:59.192Z,8.6
2023-05-19T02:14:59.182Z,8.6
2023-05-19T02:15:59.984Z,8.6
2023-05-19T02:16:59.925Z,8.6
2023-05-19T02:17:59.955Z,8.6
2023-05-19T02:18:59.255Z,8.6
2023-05-19T02:19:59.289Z,8.6
2023-05-19T02:20:59.419Z,8.6
2023-05-19T02:21:59.245Z,8.6
2023-05-19T02:22:59.173Z,8.6
2023-05-19T02:23:59.321Z,8.6
2023-05-19T02:24:59.494Z,8.6
2023-05-19T02:25:59.189Z,8.6
2023-05-19T02:26:59.290Z,8.6
2023-05-19T02:28:00.126Z,8.6
2023-05-19T02:28:59.602Z,8.6
2023-05-19T02:29:59.438Z,8.6
2023-05-19T02:30:59.882Z,8.6
2023-05-19T02:31:59.226Z,8.6
2023-05-19T02:32:59.254Z,8.6
2023-05-19T02:33:59.467Z,8.5
2023-05-19T02:34:59.192Z,8.5
2023-05-19T02:35:58.575Z,8.6
2023-05-19T02:36:59.293Z,8.6
2023-05-19T02:37:59.185Z,8.6
2023-05-19T02:38:59.199Z,8.6
2023-05-19T02:39:59.208Z,8.5
2023-05-19T02:40:59.578Z,8.5
2023-05-19T02:41:59.752Z,8.5
2023-05-19T02:42:59.855Z,8.5
2023-05-19T02:43:59.178Z,8.5
2023-05-19T02:44:59.172Z,8.5
2023-05-19T02:45:59.792Z,8.5
2023-05-19T02:46:59.224Z,8.5
2023-05-19T02:48:59.196Z,8.5
2023-05-19T02:49:59.873Z,8.5
2023-05-19T02:50:59.764Z,8.5
2023-05-19T02:51:59.450Z,8.5
2023-05-19T02:52:59.187Z,8.5
2023-05-19T02:53:58.272Z,8.5
2023-05-19T02:54:59.652Z,8.5
2023-05-19T02:55:59.900Z,8.5
2023-05-19T02:56:59.191Z,8.5
2023-05-19T02:57:59.202Z,8.5
2023-05-19T02:58:59.189Z,8.5
2023-05-19T02:59:59.184Z,8.5
2023-05-19T03:00:59.201Z,8.5
2023-05-19T03:01:59.258Z,8.5
2023-05-19T03:02:59.243Z,8.4
2023-05-19T03:03:59.291Z,8.4
2023-05-19T03:04:59.350Z,8.4
2023-05-19T03:05:58.247Z,8.4
2023-05-19T03:07:59.201Z,8.4
2023-05-19T03:08:59.184Z,8.4
2023-05-19T03:09:59.261Z,8.4
2023-05-19T03:10:59.181Z,8.4
2023-05-19T03:11:59.937Z,8.3
2023-05-19T03:12:59.698Z,8.3
2023-05-19T03:13:59.183Z,8.3
2023-05-19T03:14:59.242Z,8.3
2023-05-19T03:15:59.403Z,8.3
2023-05-19T03:17:59.963Z,8.3
2023-05-19T03:18:59.215Z,8.3
2023-05-19T03:19:59.180Z,8.3
2023-05-19T03:20:59.200Z,8.3
2023-05-19T03:21:59.753Z,8.3
2023-05-19T03:22:59.200Z,8.3
2023-05-19T03:23:59.179Z,8.3
2023-05-19T03:24:59.337Z,8.3
2023-05-19T03:25:59.591Z,8.3
2023-05-19T03:26:59.194Z,8.3
2023-05-19T03:27:59.904Z,8.2
2023-05-19T03:28:59.319Z,8.3
2023-05-19T03:29:59.197Z,8.3
2023-05-19T03:30:59.557Z,8.3
2023-05-19T03:31:59.582Z,8.3
2023-05-19T03:33:00.024Z,8.3
2023-05-19T03:33:59.213Z,8.3
2023-05-19T03:34:59.561Z,8.3
2023-05-19T03:35:58.874Z,8.3
2023-05-19T03:36:59.544Z,8.3
2023-05-19T03:37:59.188Z,8.3
2023-05-19T03:38:59.665Z,8.3
2023-05-19T03:39:59.891Z,8.3
2023-05-19T03:40:59.191Z,8.3
2023-05-19T03:41:59.322Z,8.3
2023-05-19T03:42:59.204Z,8.3
2023-05-19T03:43:59.217Z,8.3
2023-05-19T03:44:58.273Z,8.3
2023-05-19T03:45:59.419Z,8.3
2023-05-19T03:46:59.202Z,8.3
2023-05-19T03:48:59.194Z,8.2
2023-05-19T03:49:59.194Z,8.2
2023-05-19T03:50:59.172Z,8.2
2023-05-19T03:51:59.283Z,8.2
2023-05-19T03:52:59.193Z,8.2
2023-05-19T03:53:59.204Z,8.2
2023-05-19T03:54:59.183Z,8.2
2023-05-19T03:55:59.217Z,8.2
2023-05-19T03:56:59.213Z,8.2
2023-05-19T03:57:59.197Z,8.1
2023-05-19T03:59:00.148Z,8.1
2023-05-19T03:59:59.752Z,8
2023-05-19T04:00:59.185Z,8
2023-05-19T04:01:59.284Z,8
2023-05-19T04:02:59.977Z,8
2023-05-19T04:03:59.749Z,8
2023-05-19T04:04:59.436Z,7.9
2023-05-19T04:05:58.278Z,7.9
2023-05-19T04:06:59.195Z,7.9
2023-05-19T04:07:59.189Z,7.9
2023-05-19T04:08:59.203Z,7.9
2023-05-19T04:09:59.370Z,7.9
2023-05-19T04:10:59.645Z,7.9
2023-05-19T04:12:59.197Z,7.9
2023-05-19T04:13:59.173Z,7.9
2023-05-19T04:15:00.042Z,7.9
2023-05-19T04:15:59.776Z,7.9
2023-05-19T04:16:59.345Z,7.9
2023-05-19T04:17:59.230Z,7.9
2023-05-19T04:18:59.214Z,8
2023-05-19T04:19:59.192Z,7.9
2023-05-19T04:20:59.872Z,8
2023-05-19T04:21:59.184Z,8
2023-05-19T04:22:59.207Z,8
2023-05-19T04:23:59.204Z,8
2023-05-19T04:24:59.195Z,8
2023-05-19T04:26:00.057Z,8
2023-05-19T04:26:59.189Z,8
2023-05-19T04:27:59.507Z,8
2023-05-19T04:28:59.216Z,8.1
2023-05-19T04:29:59.186Z,8.1
2023-05-19T04:30:59.227Z,8.1
2023-05-19T04:31:58.273Z,8.2
2023-05-19T04:32:59.342Z,8.2
2023-05-19T04:33:59.177Z,8.2
2023-05-19T04:34:59.283Z,8.3
2023-05-19T04:37:00.166Z,8.3
2023-05-19T04:37:59.204Z,8.3
2023-05-19T04:38:59.874Z,8.3
2023-05-19T04:39:59.184Z,8.3
2023-05-19T04:40:59.616Z,8.2
2023-05-19T04:42:59.190Z,8.2
2023-05-19T04:43:59.735Z,8.2
2023-05-19T04:44:59.193Z,8.2
2023-05-19T04:45:59.194Z,8.3
2023-05-19T04:46:59.233Z,8.3
2023-05-19T04:47:59.388Z,8.3
2023-05-19T04:48:59.179Z,8.4
2023-05-19T04:49:59.792Z,8.4
2023-05-19T04:50:59.207Z,8.5
2023-05-19T04:51:59.920Z,8.5
2023-05-19T04:52:59.205Z,8.6
2023-05-19T04:53:59.190Z,8.7
2023-05-19T04:54:59.210Z,8.8
2023-05-19T04:55:59.369Z,8.8
2023-05-19T04:56:59.802Z,8.9
2023-05-19T04:57:59.269Z,8.9
2023-05-19T04:58:59.288Z,8.9
2023-05-19T04:59:59.191Z,8.9
2023-05-19T05:00:59.561Z,8.9
2023-05-19T05:01:59.567Z,8.9
2023-05-19T05:02:59.354Z,8.9
2023-05-19T05:04:00.121Z,8.9
2023-05-19T05:04:59.202Z,8.9
2023-05-19T05:06:59.199Z,8.9
2023-05-19T05:07:59.215Z,8.9
2023-05-19T05:08:59.187Z,8.9
2023-05-19T05:09:59.395Z,8.8
2023-05-19T05:10:59.404Z,8.9
2023-05-19T05:11:59.743Z,8.9
2023-05-19T05:12:59.777Z,8.9
2023-05-19T05:13:59.967Z,8.9
2023-05-19T05:15:59.236Z,8.9
2023-05-19T05:16:59.178Z,8.9
2023-05-19T05:17:59.197Z,8.9
2023-05-19T05:18:59.203Z,8.9
2023-05-19T05:19:59.292Z,8.9
2023-05-19T05:20:59.237Z,8.9
2023-05-19T05:21:59.548Z,8.9
2023-05-19T05:22:59.201Z,8.9
2023-05-19T05:23:59.872Z,8.9
2023-05-19T05:24:59.825Z,9
2023-05-19T05:25:59.969Z,8.9
2023-05-19T05:26:59.923Z,8.9
2023-05-19T05:27:59.633Z,9
2023-05-19T05:28:59.170Z,9
2023-05-19T05:29:59.513Z,9
2023-05-19T05:30:59.847Z,9.1
2023-05-19T05:31:59.765Z,9.2
2023-05-19T05:32:59.975Z,9.1
2023-05-19T05:33:59.262Z,9.1
2023-05-19T05:34:59.217Z,9.2
2023-05-19T05:35:58.263Z,9.1
2023-05-19T05:36:59.226Z,9.2
2023-05-19T05:37:59.192Z,9.2
2023-05-19T05:38:59.297Z,9.2
2023-05-19T05:39:59.182Z,9.2
2023-05-19T05:40:59.574Z,9.2
2023-05-19T05:42:59.221Z,9
2023-05-19T05:43:59.196Z,9
2023-05-19T05:44:59.197Z,9
2023-05-19T05:45:59.212Z,9
2023-05-19T05:46:59.195Z,9
2023-05-19T05:47:59.981Z,9
2023-05-19T05:48:59.206Z,9
2023-05-19T05:49:59.190Z,9
2023-05-19T05:50:59.186Z,9
2023-05-19T05:52:05.715Z,9
2023-05-19T05:52:59.193Z,9
2023-05-19T05:53:59.203Z,8.9
2023-05-19T05:54:59.206Z,9
2023-05-19T05:55:59.534Z,8.8
2023-05-19T05:56:59.454Z,8.7
2023-05-19T05:57:59.213Z,8.6
2023-05-19T05:58:59.792Z,8.5
2023-05-19T05:59:59.205Z,8.4
2023-05-19T06:01:00.000Z,8.5
2023-05-19T06:01:59.207Z,8.6
2023-05-19T06:02:59.467Z,8.6
2023-05-19T06:03:59.629Z,8.5
2023-05-19T06:05:00.061Z,8.4
2023-05-19T06:05:58.409Z,8.2
2023-05-19T06:06:59.179Z,8.3
2023-05-19T06:07:59.237Z,8.3
2023-05-19T06:08:59.502Z,8.2
2023-05-19T06:09:59.382Z,8.4
2023-05-19T06:10:59.204Z,8.3
2023-05-19T06:11:59.531Z,8.2
2023-05-19T06:12:59.205Z,8.4
2023-05-19T06:13:59.355Z,8.1
2023-05-19T06:14:58.317Z,8.1
2023-05-19T06:16:01.227Z,7.8
2023-05-19T06:16:59.430Z,7.7
2023-05-19T06:18:59.402Z,7.7
2023-05-19T06:19:59.215Z,8
2023-05-19T06:20:59.895Z,8
2023-05-19T06:21:59.198Z,8.1
2023-05-19T06:22:59.213Z,8
2023-05-19T06:24:59.195Z,7.9
2023-05-19T06:25:59.201Z,7.9
2023-05-19T06:26:59.723Z,8
2023-05-19T06:27:59.392Z,7.9
2023-05-19T06:28:59.237Z,7.9
2023-05-19T06:29:59.214Z,7.8
2023-05-19T06:30:59.207Z,7.7
2023-05-19T06:31:59.203Z,8
2023-05-19T06:32:59.262Z,8
2023-05-19T06:33:59.197Z,7.9
2023-05-19T06:34:59.328Z,7.9
2023-05-19T06:35:58.270Z,7.9
2023-05-19T06:36:59.213Z,7.7
2023-05-19T06:37:59.717Z,7.8
2023-05-19T06:39:01.201Z,7.5
2023-05-19T06:39:59.207Z,7.5
2023-05-19T06:40:59.213Z,7.6
2023-05-19T06:41:59.317Z,7.7
2023-05-19T06:42:59.606Z,7.7
2023-05-19T06:43:59.204Z,7.7
2023-05-19T06:44:59.193Z,7.9
2023-05-19T06:45:59.198Z,8
2023-05-19T06:46:59.296Z,7.8
2023-05-19T06:47:59.291Z,7.6
2023-05-19T06:48:59.308Z,7.6
2023-05-19T06:49:59.338Z,7.8
2023-05-19T06:50:59.212Z,7.7
2023-05-19T06:51:59.273Z,7.7
2023-05-19T06:52:59.198Z,7.8
2023-05-19T06:53:59.764Z,7.9
2023-05-19T06:54:59.201Z,7.9
2023-05-19T06:56:00.393Z,8.2
2023-05-19T06:57:59.456Z,7.7
2023-05-19T06:58:59.223Z,7.9
2023-05-19T06:59:59.714Z,7.6
2023-05-19T07:01:59.960Z,8.1
2023-05-19T07:02:59.391Z,8.1
2023-05-19T07:03:59.374Z,7.8
2023-05-19T07:04:59.221Z,7.7
2023-05-19T07:05:58.867Z,7.8
2023-05-19T07:06:59.457Z,7.8
2023-05-19T07:07:59.680Z,7.9
2023-05-19T07:08:59.215Z,7.7
2023-05-19T07:09:59.206Z,7.7
2023-05-19T07:10:59.219Z,7.7
2023-05-19T07:12:59.347Z,7.6
2023-05-19T07:13:59.535Z,7.8
2023-05-19T07:15:00.008Z,7.9
2023-05-19T07:15:59.210Z,7.8
2023-05-19T07:16:59.482Z,7.9
2023-05-19T07:17:59.383Z,7.8
2023-05-19T07:19:00.260Z,7.4
2023-05-19T07:19:59.214Z,7.3
2023-05-19T07:20:59.808Z,7.5
2023-05-19T07:21:59.429Z,7.6
2023-05-19T07:23:00.057Z,7.9
2023-05-19T07:24:59.437Z,7.7
2023-05-19T07:25:59.210Z,7.7
2023-05-19T07:26:59.220Z,7.6
2023-05-19T07:27:59.354Z,7.3
2023-05-19T07:28:59.762Z,8.2
2023-05-19T07:29:59.713Z,7.5
2023-05-19T07:31:00.013Z,7.6
2023-05-19T07:31:59.725Z,7.5
2023-05-19T07:32:59.305Z,7.7
2023-05-19T07:33:59.933Z,7.7
2023-05-19T07:35:00.153Z,7.3
2023-05-19T07:35:58.697Z,7.6
2023-05-19T07:36:59.266Z,7.6
2023-05-19T07:37:59.900Z,7.5
2023-05-19T07:38:59.566Z,7.7
2023-05-19T07:39:59.212Z,7.7
2023-05-19T07:40:59.231Z,7.8
2023-05-19T07:42:59.405Z,7.7
2023-05-19T07:43:59.404Z,7.8
2023-05-19T07:44:59.484Z,7.9
2023-05-19T07:45:59.686Z,8.2
2023-05-19T07:46:59.470Z,8.2
2023-05-19T07:47:59.240Z,8.3
2023-05-19T07:48:59.224Z,8.1
2023-05-19T07:49:59.223Z,8.1
2023-05-19T07:50:59.887Z,8
2023-05-19T07:51:59.369Z,8
2023-05-19T07:52:59.442Z,7.7
2023-05-19T07:53:59.600Z,7.5
2023-05-19T07:54:59.201Z,7.6
2023-05-19T07:55:59.202Z,7.5
2023-05-19T07:56:59.668Z,7.4
2023-05-19T07:57:59.901Z,7.6
2023-05-19T07:58:59.670Z,7.7
2023-05-19T08:01:00.007Z,7.9
2023-05-19T08:01:59.261Z,8
2023-05-19T08:02:59.297Z,8
2023-05-19T08:03:59.312Z,7.9
2023-05-19T08:04:59.927Z,7.9
2023-05-19T08:06:59.226Z,7.7
2023-05-19T08:07:59.210Z,7.6
2023-05-19T08:09:00.144Z,7.4
2023-05-19T08:09:59.333Z,7.4
2023-05-19T08:10:59.987Z,7.5
2023-05-19T08:11:59.953Z,7.3
2023-05-19T08:12:59.218Z,7.4
2023-05-19T08:13:59.204Z,7.6
2023-05-19T08:15:01.364Z,7.4
2023-05-19T08:15:59.263Z,7.3
2023-05-19T08:16:59.267Z,7.3
2023-05-19T08:17:59.316Z,7.2
2023-05-19T08:18:59.261Z,7.4
2023-05-19T08:19:59.875Z,7.5
2023-05-19T08:20:59.245Z,7.3
2023-05-19T08:21:59.861Z,7.5
2023-05-19T08:22:59.224Z,7.5
2023-05-19T08:23:59.246Z,7.6
2023-05-19T08:24:59.221Z,7.8
2023-05-19T08:25:59.259Z,7.9
2023-05-19T08:26:59.785Z,7.9
2023-05-19T08:27:59.668Z,7.5
2023-05-19T08:28:59.337Z,7.3
2023-05-19T08:29:59.229Z,7.4
2023-05-19T08:30:59.256Z,7.3
2023-05-19T08:31:59.243Z,7.3
2023-05-19T08:32:59.310Z,7.5
2023-05-19T08:33:59.281Z,7.2
2023-05-19T08:34:59.397Z,7.3
2023-05-19T08:35:58.774Z,7.7
2023-05-19T08:36:59.230Z,7.2
2023-05-19T08:37:59.687Z,7.1
2023-05-19T08:39:00.170Z,7.3
2023-05-19T08:39:59.520Z,7.5
2023-05-19T08:40:59.550Z,7.8
2023-05-19T08:42:59.255Z,7.7
2023-05-19T08:43:59.222Z,7.5
2023-05-19T08:45:00.037Z,7.5
2023-05-19T08:45:59.239Z,7.2
2023-05-19T08:46:59.336Z,6.8
2023-05-19T08:47:59.447Z,6.6
2023-05-19T08:48:59.225Z,6.6
2023-05-19T08:49:59.229Z,6.6
2023-05-19T08:50:59.228Z,6.4
2023-05-19T08:51:59.249Z,6.5
2023-05-19T08:52:59.228Z,6.6
2023-05-19T08:53:59.235Z,6.7
2023-05-19T08:54:59.239Z,6.7
2023-05-19T08:55:59.233Z,6.8
2023-05-19T08:56:59.310Z,7.2
2023-05-19T08:58:00.085Z,7.2
2023-05-19T08:58:59.840Z,7.1
2023-05-19T08:59:59.261Z,6.6
2023-05-19T09:00:59.246Z,6.7
2023-05-19T09:01:59.224Z,6.5
2023-05-19T09:03:06.563Z,6.4
2023-05-19T09:03:59.751Z,6.5
2023-05-19T09:04:59.333Z,6.6
2023-05-19T09:06:59.221Z,6.5
2023-05-19T09:08:00.043Z,6.6
2023-05-19T09:08:59.235Z,6.5
2023-05-19T09:09:59.372Z,6.4
2023-05-19T09:10:59.228Z,6.9
2023-05-19T09:11:59.917Z,7.1
2023-05-19T09:12:59.246Z,6.9
2023-05-19T09:13:59.230Z,6.5
2023-05-19T09:14:59.242Z,6.6
2023-05-19T09:15:59.260Z,6.8
2023-05-19T09:16:59.270Z,7
2023-05-19T09:17:59.260Z,6.6
2023-05-19T09:18:59.557Z,6.4
2023-05-19T09:19:59.324Z,6.5
2023-05-19T09:20:59.270Z,6.7
2023-05-19T09:22:59.235Z,6.6
2023-05-19T09:23:59.256Z,6.4
2023-05-19T09:24:59.889Z,6.4
2023-05-19T09:26:00.108Z,6.2
2023-05-19T09:27:00.402Z,6.2
2023-05-19T09:27:59.809Z,6.1
2023-05-19T09:28:59.282Z,6
2023-05-19T09:30:59.269Z,6.2
2023-05-19T09:31:59.628Z,6.2
2023-05-19T09:32:59.576Z,6.2
2023-05-19T09:33:59.857Z,6.3
2023-05-19T09:34:59.242Z,6.2
2023-05-19T09:35:58.736Z,6.3
2023-05-19T09:36:59.232Z,6.5
2023-05-19T09:38:00.041Z,6.5
2023-05-19T09:38:59.569Z,6.4
2023-05-19T09:39:59.229Z,6.3
2023-05-19T09:40:59.778Z,6.2
2023-05-19T09:42:59.376Z,6.4
2023-05-19T09:43:59.259Z,6.4
2023-05-19T09:44:59.305Z,6.2
2023-05-19T09:45:59.286Z,6.6
2023-05-19T09:47:00.178Z,6.5
2023-05-19T09:47:59.917Z,6.4
2023-05-19T09:48:59.274Z,6.4
2023-05-19T09:49:59.956Z,6.2
2023-05-19T09:50:59.356Z,6.2
2023-05-19T09:51:59.343Z,6.4
2023-05-19T09:52:59.579Z,6.3
2023-05-19T09:53:59.239Z,6.2
2023-05-19T09:54:59.232Z,6.7
2023-05-19T09:56:00.112Z,6.6
2023-05-19T09:56:59.732Z,6.7
2023-05-19T09:58:00.211Z,6.8
2023-05-19T09:58:59.819Z,6.9
2023-05-19T09:59:59.270Z,7.1
2023-05-19T10:00:59.629Z,6.4
2023-05-19T10:01:59.315Z,7.1
2023-05-19T10:02:59.244Z,7.3
2023-05-19T10:03:59.255Z,7
2023-05-19T10:04:59.317Z,6.4
2023-05-19T10:05:58.333Z,6.5
2023-05-19T10:06:59.530Z,6.6
2023-05-19T10:07:59.947Z,6.6
2023-05-19T10:08:59.575Z,6.7
2023-05-19T10:09:59.261Z,6.3
2023-05-19T10:10:59.246Z,6.4
2023-05-19T10:11:59.240Z,6.4
2023-05-19T10:12:59.259Z,6.4
2023-05-19T10:13:59.265Z,6.6
2023-05-19T10:14:59.584Z,6.4
2023-05-19T10:16:00.289Z,6.7
2023-05-19T10:16:59.880Z,6.4
2023-05-19T10:17:59.272Z,6.3
2023-05-19T10:18:59.289Z,6.6
2023-05-19T10:19:59.245Z,6.5
2023-05-19T10:20:59.977Z,6.5
2023-05-19T10:21:59.253Z,6.3
2023-05-19T10:22:59.256Z,6.4
2023-05-19T10:23:59.566Z,6.5
2023-05-19T10:24:59.807Z,6.6
2023-05-19T10:26:00.167Z,6.6
2023-05-19T10:26:59.891Z,6.7
2023-05-19T10:27:59.492Z,6.2
2023-05-19T10:28:59.248Z,6.1
2023-05-19T10:29:59.597Z,6.2
2023-05-19T10:30:59.613Z,6.5
2023-05-19T10:31:59.327Z,6.4
2023-05-19T10:32:59.345Z,6.2
2023-05-19T10:33:59.961Z,6.2
2023-05-19T10:34:59.278Z,6.4
2023-05-19T10:35:59.350Z,6.4
2023-05-19T10:36:59.256Z,6.1
2023-05-19T10:37:59.258Z,6.2
2023-05-19T10:38:59.272Z,6.3
2023-05-19T10:39:59.258Z,6.1
2023-05-19T10:40:59.474Z,6.4
2023-05-19T10:41:59.572Z,6.3
2023-05-19T10:42:59.847Z,6.6
2023-05-19T10:43:59.715Z,6.2
2023-05-19T10:44:59.318Z,6
2023-05-19T10:45:59.297Z,6.3
2023-05-19T10:46:59.883Z,6.3
2023-05-19T10:47:59.337Z,6.2
2023-05-19T10:48:59.749Z,6.3
2023-05-19T10:49:59.266Z,6.2
2023-05-19T10:50:59.329Z,6.3
2023-05-19T10:52:00.000Z,6.1
2023-05-19T10:52:59.644Z,6.3
2023-05-19T10:55:00.190Z,6.2
2023-05-19T10:55:59.295Z,6.3
2023-05-19T10:56:59.272Z,6.6
2023-05-19T10:57:59.277Z,6.6
2023-05-19T10:59:00.195Z,6.1
2023-05-19T10:59:59.263Z,6.1
2023-05-19T11:00:59.575Z,6
2023-05-19T11:02:00.157Z,6.2
2023-05-19T11:02:59.880Z,6
2023-05-19T11:03:59.347Z,6.2
2023-05-19T11:04:59.252Z,6.2
2023-05-19T11:05:58.816Z,6.5
2023-05-19T11:06:59.925Z,6.4
2023-05-19T11:07:59.462Z,6.3
2023-05-19T11:08:59.264Z,6.2
2023-05-19T11:09:59.264Z,6.2
2023-05-19T11:10:59.269Z,6.2
2023-05-19T11:13:00.115Z,6
2023-05-19T11:13:59.265Z,6.4
2023-05-19T11:14:58.969Z,6.2
2023-05-19T11:16:00.008Z,6.1
2023-05-19T11:16:59.434Z,6.2
2023-05-19T11:17:59.397Z,6.1
2023-05-19T11:19:00.062Z,6.3
2023-05-19T11:19:59.823Z,6.2
2023-05-19T11:20:59.316Z,6
2023-05-19T11:21:59.265Z,6.1
2023-05-19T11:22:59.378Z,6.1
2023-05-19T11:23:59.426Z,6.2
2023-05-19T11:24:59.405Z,6.3
2023-05-19T11:25:59.251Z,6.2
2023-05-19T11:26:59.576Z,6.2
2023-05-19T11:27:59.276Z,5.9
2023-05-19T11:28:59.288Z,6.1
2023-05-19T11:29:59.544Z,6.3
2023-05-19T11:30:59.347Z,6.6
2023-05-19T11:31:59.629Z,6.4
2023-05-19T11:32:59.376Z,6.3
2023-05-19T11:33:59.308Z,6.3
2023-05-19T11:34:59.271Z,6.3
2023-05-19T11:35:58.681Z,6.4
2023-05-19T11:36:59.856Z,6.5
2023-05-19T11:38:01.173Z,6.4
2023-05-19T11:38:59.282Z,6.1
2023-05-19T11:39:59.750Z,6.2
2023-05-19T11:41:00.146Z,6.4
2023-05-19T11:41:59.796Z,6.3
2023-05-19T11:42:59.455Z,6.1
2023-05-19T11:43:59.612Z,6.1
2023-05-19T11:45:00.074Z,6.2
2023-05-19T11:46:00.055Z,6.3
2023-05-19T11:47:00.090Z,5.9
2023-05-19T11:48:02.442Z,6
2023-05-19T11:48:59.414Z,6.1
2023-05-19T11:49:59.318Z,6.2
2023-05-19T11:50:59.272Z,6.2
2023-05-19T11:51:59.459Z,6.3
2023-05-19T11:52:59.275Z,6.1
2023-05-19T11:53:59.424Z,6.3
2023-05-19T11:54:59.585Z,6.3
2023-05-19T11:55:59.268Z,6.5
2023-05-19T11:57:00.001Z,6.2
2023-05-19T11:58:59.260Z,6
2023-05-19T11:59:59.274Z,5.9
2023-05-19T12:00:59.281Z,6.1
2023-05-19T12:01:59.292Z,5.9
2023-05-19T12:02:59.331Z,6.2
2023-05-19T12:03:59.981Z,6.2
2023-05-19T12:04:59.323Z,5.9
2023-05-19T12:05:58.499Z,5.9
2023-05-19T12:06:59.325Z,5.7
2023-05-19T12:07:59.402Z,5.9
2023-05-19T12:08:59.755Z,6
2023-05-19T12:09:59.287Z,6
2023-05-19T12:10:59.765Z,6.4
2023-05-19T12:11:59.873Z,6.3
2023-05-19T12:12:59.288Z,6.1
2023-05-19T12:13:59.319Z,5.8
2023-05-19T12:14:59.821Z,5.9
2023-05-19T12:15:59.336Z,6.1
2023-05-19T12:16:59.701Z,6.1
2023-05-19T12:17:59.328Z,6
2023-05-19T12:18:59.297Z,6.2
2023-05-19T12:20:00.104Z,6.3
2023-05-19T12:20:59.287Z,6.3
2023-05-19T12:21:59.280Z,6.6
2023-05-19T12:22:59.779Z,6.1
2023-05-19T12:24:59.307Z,6.2
2023-05-19T12:25:59.380Z,6.1
2023-05-19T12:26:59.300Z,5.9
2023-05-19T12:27:59.303Z,5.9
2023-05-19T12:28:59.306Z,5.9
2023-05-19T12:29:59.284Z,6
2023-05-19T12:30:59.806Z,5.9
2023-05-19T12:31:59.312Z,6.1
2023-05-19T12:33:00.114Z,5.9
2023-05-19T12:33:59.292Z,6.1
2023-05-19T12:34:59.664Z,6
2023-05-19T12:35:58.916Z,6.1
2023-05-19T12:36:59.282Z,6.2
2023-05-19T12:37:59.641Z,6.1
2023-05-19T12:39:00.118Z,6.2
2023-05-19T12:39:59.322Z,6.3
2023-05-19T12:40:59.372Z,6.3
2023-05-19T12:41:59.407Z,6.2
2023-05-19T12:42:59.478Z,6.3
2023-05-19T12:43:59.309Z,6.2
2023-05-19T12:45:00.862Z,6.2
2023-05-19T12:45:59.325Z,6.1
2023-05-19T12:46:59.280Z,6
2023-05-19T12:47:59.351Z,6
2023-05-19T12:48:59.551Z,5.9
2023-05-19T12:49:59.402Z,6.1
2023-05-19T12:50:59.288Z,6
2023-05-19T12:53:00.062Z,5.9
2023-05-19T12:54:00.018Z,5.9
2023-05-19T12:54:59.898Z,6.1
2023-05-19T12:56:00.153Z,6.1
2023-05-19T12:56:59.821Z,6.1
2023-05-19T12:57:59.487Z,5.9
2023-05-19T12:58:59.312Z,6
2023-05-19T12:59:59.333Z,6
2023-05-19T13:00:59.381Z,6.2
2023-05-19T13:01:59.522Z,6.1
2023-05-19T13:02:59.381Z,6
2023-05-19T13:03:59.417Z,6.4
2023-05-19T13:04:59.441Z,6.4
2023-05-19T13:06:59.609Z,6.6
2023-05-19T13:07:59.333Z,6.5
2023-05-19T13:08:59.301Z,6.4
2023-05-19T13:09:59.296Z,6.1
2023-05-19T13:10:59.297Z,6.1
2023-05-19T13:11:59.310Z,6.1
2023-05-19T13:13:59.309Z,5.9
2023-05-19T13:14:59.303Z,5.8
2023-05-19T13:15:59.312Z,5.8
2023-05-19T13:16:59.511Z,5.8
2023-05-19T13:17:59.392Z,6
2023-05-19T13:18:59.611Z,5.9
2023-05-19T13:19:59.337Z,5.8
2023-05-19T13:20:59.919Z,5.8
2023-05-19T13:21:59.520Z,5.9
2023-05-19T13:22:59.483Z,5.9
2023-05-19T13:23:59.316Z,5.9
2023-05-19T13:24:59.297Z,6
2023-05-19T13:25:59.321Z,6
2023-05-19T13:27:00.144Z,6
2023-05-19T13:28:00.149Z,6.1
2023-05-19T13:28:59.331Z,5.8
2023-05-19T13:29:59.325Z,5.9
2023-05-19T13:30:59.358Z,6
2023-05-19T13:32:01.355Z,6.2
2023-05-19T13:32:59.481Z,6.5
2023-05-19T13:33:59.324Z,6.8
2023-05-19T13:35:00.176Z,6.7
2023-05-19T13:36:59.399Z,6.1
2023-05-19T13:38:59.336Z,6.1
2023-05-19T13:39:59.817Z,6
2023-05-19T13:40:59.907Z,6.1
2023-05-19T13:42:59.489Z,6.1
2023-05-19T13:43:59.313Z,6.3
2023-05-19T13:44:59.368Z,6.2
2023-05-19T13:45:59.331Z,6.3
2023-05-19T13:46:59.319Z,6.2
2023-05-19T13:48:59.317Z,6.2
2023-05-19T13:50:00.143Z,6.2
2023-05-19T13:50:59.329Z,6.2
2023-05-19T13:52:00.007Z,6
2023-05-19T13:52:59.310Z,6.1
2023-05-19T13:53:59.884Z,6.1
2023-05-19T13:54:59.308Z,6.1
2023-05-19T13:55:59.313Z,6.1
2023-05-19T13:56:59.922Z,6.3
2023-05-19T13:57:59.315Z,6
2023-05-19T13:58:59.304Z,6
2023-05-19T14:00:03.145Z,5.9
2023-05-19T14:00:59.426Z,5.8
2023-05-19T14:01:59.324Z,6
2023-05-19T14:02:59.462Z,6.1
2023-05-19T14:04:00.127Z,6
2023-05-19T14:04:59.500Z,6.1
2023-05-19T14:05:58.771Z,6.2
2023-05-19T14:06:59.320Z,6.1
2023-05-19T14:07:59.629Z,6
2023-05-19T14:08:59.368Z,6.1
2023-05-19T14:09:59.714Z,6.1
2023-05-19T14:10:59.517Z,6
2023-05-19T14:13:28.950Z,6.2
2023-05-19T14:13:59.365Z,6.2
2023-05-19T14:15:00.473Z,6.2
2023-05-19T14:15:59.357Z,6.4
2023-05-19T14:16:59.333Z,6.1
2023-05-19T14:22:05.994Z,5.7
2023-05-19T14:23:06.790Z,5.7
2023-05-19T14:23:58.425Z,5.8
2023-05-19T14:24:59.366Z,5.7
2023-05-19T14:25:59.310Z,5.5
2023-05-19T14:26:59.909Z,5.7
2023-05-19T14:27:59.441Z,5.7
2023-05-19T14:29:00.021Z,5.6
2023-05-19T14:29:59.770Z,5.6
2023-05-19T14:30:59.334Z,5.8
2023-05-19T14:31:59.827Z,5.8
2023-05-19T14:32:59.332Z,5.6
2023-05-19T14:34:59.789Z,5.7
2023-05-19T14:35:58.692Z,5.8
2023-05-19T14:36:59.515Z,5.9